Clay City, Kentucky
Current Conditions -  °F | °C
As of 3:15 AM on Thursday 29 Jan 2015 (Local Time) from KIOB Reporting Station
Clear Clear  
Wind Chill: 26°   Ceiling: Unl
Heat Index: 34°   Visibility: 10mi
Dew Point: 21°   Wind: 9mph
Humidity: 60%   Direction: 200°SSW
Pressure: 30.1"   Gusts: NA
Location:  37.86°N, 83.92°W
Report Text: KIOB 290815Z AUTO 20008KT 10SM CLR 01/M06 A3010 RMK AO2
Loading
Personal Weather Stations






























Interactive Weather Map New forecast layout! Learn more

10-Day Weather Forecast

Advertisements
Track Severe Weather on mobile